sensor_id;sensor_type;location;lat;lon;timestamp;P1;durP1;ratioP1;P2;durP2;ratioP2
76818;SDS011;65772;51.096;17.006;2023-02-15T00:01:40;22.80;;;11.00;;
76818;SDS011;65772;51.096;17.006;2023-02-15T00:04:11;23.50;;;10.90;;
76818;SDS011;65772;51.096;17.006;2023-02-15T00:06:40;23.70;;;11.30;;
76818;SDS011;65772;51.096;17.006;2023-02-15T00:09:09;25.70;;;10.90;;
76818;SDS011;65772;51.096;17.006;2023-02-15T00:11:37;25.60;;;12.10;;
76818;SDS011;65772;51.096;17.006;2023-02-15T00:14:10;27.80;;;11.60;;
76818;SDS011;65772;51.096;17.006;2023-02-15T00:16:41;23.30;;;11.20;;
76818;SDS011;65772;51.096;17.006;2023-02-15T00:19:11;26.50;;;11.50;;
76818;SDS011;65772;51.096;17.006;2023-02-15T00:21:40;24.40;;;10.60;;
76818;SDS011;65772;51.096;17.006;2023-02-15T00:24:10;20.80;;;10.00;;
76818;SDS011;65772;51.096;17.006;2023-02-15T00:26:39;23.90;;;11.30;;
76818;SDS011;65772;51.096;17.006;2023-02-15T00:29:09;26.20;;;11.90;;
76818;SDS011;65772;51.096;17.006;2023-02-15T00:31:37;23.90;;;10.90;;
76818;SDS011;65772;51.096;17.006;2023-02-15T00:34:06;26.50;;;11.80;;
76818;SDS011;65772;51.096;17.006;2023-02-15T00:39:05;23.60;;;10.10;;
76818;SDS011;65772;51.096;17.006;2023-02-15T00:41:35;23.00;;;9.90;;
76818;SDS011;65772;51.096;17.006;2023-02-15T00:44:03;24.90;;;11.40;;
76818;SDS011;65772;51.096;17.006;2023-02-15T00:46:31;27.30;;;11.00;;
76818;SDS011;65772;51.096;17.006;2023-02-15T00:49:00;24.60;;;10.70;;
76818;SDS011;65772;51.096;17.006;2023-02-15T00:51:28;28.30;;;11.80;;
76818;SDS011;65772;51.096;17.006;2023-02-15T00:53:56;22.80;;;11.00;;
76818;SDS011;65772;51.096;17.006;2023-02-15T00:56:24;23.00;;;11.20;;
76818;SDS011;65772;51.096;17.006;2023-02-15T00:58:54;26.40;;;11.30;;
76818;SDS011;65772;51.096;17.006;2023-02-15T01:01:22;26.80;;;11.30;;
76818;SDS011;65772;51.096;17.006;2023-02-15T01:03:50;24.40;;;11.00;;
76818;SDS011;65772;51.096;17.006;2023-02-15T01:06:19;25.60;;;11.40;;
76818;SDS011;65772;51.096;17.006;2023-02-15T01:08:47;27.70;;;12.00;;
76818;SDS011;65772;51.096;17.006;2023-02-15T01:11:16;25.50;;;11.30;;
76818;SDS011;65772;51.096;17.006;2023-02-15T01:13:50;25.60;;;11.80;;
76818;SDS011;65772;51.096;17.006;2023-02-15T01:16:19;27.20;;;12.30;;
76818;SDS011;65772;51.096;17.006;2023-02-15T01:18:48;29.70;;;12.10;;
76818;SDS011;65772;51.096;17.006;2023-02-15T01:21:16;28.40;;;11.80;;
76818;SDS011;65772;51.096;17.006;2023-02-15T01:23:46;28.30;;;12.50;;
76818;SDS011;65772;51.096;17.006;2023-02-15T01:26:14;28.40;;;12.40;;
76818;SDS011;65772;51.096;17.006;2023-02-15T01:28:43;28.00;;;12.00;;
76818;SDS011;65772;51.096;17.006;2023-02-15T01:31:11;27.60;;;12.70;;
76818;SDS011;65772;51.096;17.006;2023-02-15T01:33:41;29.90;;;13.70;;
76818;SDS011;65772;51.096;17.006;2023-02-15T01:36:09;30.60;;;13.40;;
76818;SDS011;65772;51.096;17.006;2023-02-15T01:38:38;29.60;;;13.30;;
76818;SDS011;65772;51.096;17.006;2023-02-15T01:41:06;32.10;;;14.00;;
76818;SDS011;65772;51.096;17.006;2023-02-15T01:43:47;27.80;;;12.10;;
76818;SDS011;65772;51.096;17.006;2023-02-15T01:46:19;32.90;;;14.90;;
76818;SDS011;65772;51.096;17.006;2023-02-15T01:48:51;33.30;;;14.30;;
76818;SDS011;65772;51.096;17.006;2023-02-15T01:51:24;31.10;;;14.20;;
76818;SDS011;65772;51.096;17.006;2023-02-15T01:53:57;32.30;;;13.80;;
76818;SDS011;65772;51.096;17.006;2023-02-15T01:56:30;37.90;;;15.60;;
76818;SDS011;65772;51.096;17.006;2023-02-15T01:59:03;35.00;;;15.40;;
76818;SDS011;65772;51.096;17.006;2023-02-15T02:01:36;28.30;;;14.70;;
76818;SDS011;65772;51.096;17.006;2023-02-15T02:04:07;37.50;;;15.30;;
76818;SDS011;65772;51.096;17.006;2023-02-15T02:06:40;34.10;;;15.60;;
76818;SDS011;65772;51.096;17.006;2023-02-15T02:09:08;37.80;;;15.30;;
76818;SDS011;65772;51.096;17.006;2023-02-15T02:11:36;33.00;;;14.70;;
76818;SDS011;65772;51.096;17.006;2023-02-15T02:14:07;30.90;;;14.60;;
76818;SDS011;65772;51.096;17.006;2023-02-15T02:16:37;34.90;;;14.90;;
76818;SDS011;65772;51.096;17.006;2023-02-15T02:19:31;32.40;;;14.20;;
76818;SDS011;65772;51.096;17.006;2023-02-15T02:25:31;31.20;;;13.30;;
76818;SDS011;65772;51.096;17.006;2023-02-15T02:28:25;37.40;;;14.70;;
76818;SDS011;65772;51.096;17.006;2023-02-15T02:34:07;32.60;;;13.40;;
76818;SDS011;65772;51.096;17.006;2023-02-15T02:36:41;31.90;;;14.40;;
76818;SDS011;65772;51.096;17.006;2023-02-15T02:39:20;30.40;;;13.30;;
76818;SDS011;65772;51.096;17.006;2023-02-15T02:41:55;30.80;;;12.80;;
76818;SDS011;65772;51.096;17.006;2023-02-15T02:44:30;28.20;;;13.00;;
76818;SDS011;65772;51.096;17.006;2023-02-15T02:47:05;27.60;;;11.80;;
76818;SDS011;65772;51.096;17.006;2023-02-15T02:49:38;26.60;;;12.30;;
76818;SDS011;65772;51.096;17.006;2023-02-15T02:55:02;25.40;;;12.40;;
76818;SDS011;65772;51.096;17.006;2023-02-15T02:57:33;30.30;;;13.50;;
76818;SDS011;65772;51.096;17.006;2023-02-15T03:00:04;31.00;;;13.00;;
76818;SDS011;65772;51.096;17.006;2023-02-15T03:02:36;30.90;;;14.00;;
76818;SDS011;65772;51.096;17.006;2023-02-15T03:05:09;27.10;;;12.60;;
76818;SDS011;65772;51.096;17.006;2023-02-15T03:07:42;25.60;;;11.80;;
76818;SDS011;65772;51.096;17.006;2023-02-15T03:10:16;27.00;;;12.10;;
76818;SDS011;65772;51.096;17.006;2023-02-15T03:12:50;26.60;;;13.40;;
76818;SDS011;65772;51.096;17.006;2023-02-15T03:15:20;27.80;;;12.20;;
76818;SDS011;65772;51.096;17.006;2023-02-15T03:17:51;28.30;;;13.00;;
76818;SDS011;65772;51.096;17.006;2023-02-15T03:20:22;26.70;;;11.80;;
76818;SDS011;65772;51.096;17.006;2023-02-15T03:22:55;31.70;;;12.30;;
76818;SDS011;65772;51.096;17.006;2023-02-15T03:25:27;28.80;;;12.80;;
76818;SDS011;65772;51.096;17.006;2023-02-15T03:28:00;30.20;;;12.80;;
76818;SDS011;65772;51.096;17.006;2023-02-15T03:30:31;29.30;;;12.60;;
76818;SDS011;65772;51.096;17.006;2023-02-15T03:33:01;28.50;;;13.50;;
76818;SDS011;65772;51.096;17.006;2023-02-15T03:35:32;31.10;;;13.80;;
76818;SDS011;65772;51.096;17.006;2023-02-15T03:38:06;33.80;;;13.40;;
76818;SDS011;65772;51.096;17.006;2023-02-15T03:40:37;25.80;;;12.30;;
76818;SDS011;65772;51.096;17.006;2023-02-15T03:43:37;29.80;;;11.90;;
76818;SDS011;65772;51.096;17.006;2023-02-15T03:46:12;27.70;;;13.20;;
76818;SDS011;65772;51.096;17.006;2023-02-15T03:48:46;27.30;;;13.10;;
76818;SDS011;65772;51.096;17.006;2023-02-15T03:51:19;32.10;;;13.50;;
76818;SDS011;65772;51.096;17.006;2023-02-15T03:54:05;27.50;;;12.50;;
76818;SDS011;65772;51.096;17.006;2023-02-15T03:56:37;31.60;;;14.00;;
76818;SDS011;65772;51.096;17.006;2023-02-15T03:59:07;31.90;;;13.50;;
76818;SDS011;65772;51.096;17.006;2023-02-15T04:01:57;31.40;;;14.70;;
76818;SDS011;65772;51.096;17.006;2023-02-15T04:04:37;38.70;;;16.30;;
76818;SDS011;65772;51.096;17.006;2023-02-15T04:07:08;36.90;;;15.30;;
76818;SDS011;65772;51.096;17.006;2023-02-15T04:09:36;33.40;;;14.90;;
76818;SDS011;65772;51.096;17.006;2023-02-15T04:12:22;29.90;;;14.50;;
76818;SDS011;65772;51.096;17.006;2023-02-15T04:14:50;32.10;;;14.60;;
76818;SDS011;65772;51.096;17.006;2023-02-15T04:17:36;30.30;;;14.20;;
76818;SDS011;65772;51.096;17.006;2023-02-15T04:20:07;48.30;;;22.50;;
76818;SDS011;65772;51.096;17.006;2023-02-15T04:22:54;66.70;;;30.30;;
76818;SDS011;65772;51.096;17.006;2023-02-15T04:25:41;38.90;;;18.80;;
76818;SDS011;65772;51.096;17.006;2023-02-15T04:28:08;34.90;;;17.20;;
76818;SDS011;65772;51.096;17.006;2023-02-15T04:30:36;34.80;;;15.90;;
76818;SDS011;65772;51.096;17.006;2023-02-15T04:33:04;35.00;;;15.60;;
76818;SDS011;65772;51.096;17.006;2023-02-15T04:35:31;35.20;;;15.80;;
76818;SDS011;65772;51.096;17.006;2023-02-15T04:38:00;37.80;;;15.50;;
76818;SDS011;65772;51.096;17.006;2023-02-15T04:40:28;32.20;;;15.00;;
76818;SDS011;65772;51.096;17.006;2023-02-15T04:42:56;31.40;;;14.50;;
76818;SDS011;65772;51.096;17.006;2023-02-15T04:45:24;32.90;;;14.40;;
76818;SDS011;65772;51.096;17.006;2023-02-15T04:47:51;35.70;;;16.00;;
76818;SDS011;65772;51.096;17.006;2023-02-15T04:50:19;33.80;;;15.40;;
76818;SDS011;65772;51.096;17.006;2023-02-15T04:52:47;31.30;;;14.40;;
76818;SDS011;65772;51.096;17.006;2023-02-15T04:55:15;31.70;;;14.90;;
76818;SDS011;65772;51.096;17.006;2023-02-15T04:57:42;35.00;;;15.90;;
76818;SDS011;65772;51.096;17.006;2023-02-15T05:00:11;33.00;;;15.50;;
76818;SDS011;65772;51.096;17.006;2023-02-15T05:02:40;32.00;;;15.10;;
76818;SDS011;65772;51.096;17.006;2023-02-15T05:05:08;35.30;;;15.40;;
76818;SDS011;65772;51.096;17.006;2023-02-15T05:07:39;35.90;;;14.90;;
76818;SDS011;65772;51.096;17.006;2023-02-15T05:10:08;34.90;;;15.70;;
76818;SDS011;65772;51.096;17.006;2023-02-15T05:12:36;34.90;;;16.00;;
76818;SDS011;65772;51.096;17.006;2023-02-15T05:15:04;38.00;;;15.50;;
76818;SDS011;65772;51.096;17.006;2023-02-15T05:17:33;35.80;;;15.80;;
76818;SDS011;65772;51.096;17.006;2023-02-15T05:20:01;42.80;;;16.70;;
76818;SDS011;65772;51.096;17.006;2023-02-15T05:22:29;33.00;;;16.40;;
76818;SDS011;65772;51.096;17.006;2023-02-15T05:24:57;36.80;;;15.80;;
76818;SDS011;65772;51.096;17.006;2023-02-15T05:27:43;36.40;;;14.60;;
76818;SDS011;65772;51.096;17.006;2023-02-15T05:30:31;33.80;;;14.70;;
76818;SDS011;65772;51.096;17.006;2023-02-15T05:32:59;32.70;;;13.60;;
76818;SDS011;65772;51.096;17.006;2023-02-15T05:35:27;30.90;;;14.60;;
76818;SDS011;65772;51.096;17.006;2023-02-15T05:37:55;31.80;;;15.50;;
76818;SDS011;65772;51.096;17.006;2023-02-15T05:40:23;34.60;;;14.70;;
76818;SDS011;65772;51.096;17.006;2023-02-15T05:42:54;31.40;;;14.10;;
76818;SDS011;65772;51.096;17.006;2023-02-15T05:49:50;32.90;;;15.20;;
76818;SDS011;65772;51.096;17.006;2023-02-15T05:52:18;31.30;;;14.20;;
76818;SDS011;65772;51.096;17.006;2023-02-15T05:54:46;35.40;;;16.40;;
76818;SDS011;65772;51.096;17.006;2023-02-15T05:57:13;33.50;;;15.50;;
76818;SDS011;65772;51.096;17.006;2023-02-15T05:59:41;37.00;;;16.00;;
76818;SDS011;65772;51.096;17.006;2023-02-15T06:02:09;34.30;;;14.90;;
76818;SDS011;65772;51.096;17.006;2023-02-15T06:04:38;34.00;;;15.90;;
76818;SDS011;65772;51.096;17.006;2023-02-15T06:07:06;40.20;;;16.40;;
76818;SDS011;65772;51.096;17.006;2023-02-15T06:09:34;40.00;;;16.80;;
76818;SDS011;65772;51.096;17.006;2023-02-15T06:12:01;34.10;;;15.70;;
76818;SDS011;65772;51.096;17.006;2023-02-15T06:14:30;32.60;;;15.30;;
76818;SDS011;65772;51.096;17.006;2023-02-15T06:20:40;35.40;;;13.80;;
76818;SDS011;65772;51.096;17.006;2023-02-15T06:23:07;33.20;;;15.30;;
76818;SDS011;65772;51.096;17.006;2023-02-15T06:25:35;33.10;;;15.30;;
76818;SDS011;65772;51.096;17.006;2023-02-15T06:28:05;41.00;;;16.00;;
76818;SDS011;65772;51.096;17.006;2023-02-15T06:30:34;38.80;;;16.90;;
76818;SDS011;65772;51.096;17.006;2023-02-15T06:33:01;36.20;;;15.90;;
76818;SDS011;65772;51.096;17.006;2023-02-15T06:35:29;38.40;;;16.90;;
76818;SDS011;65772;51.096;17.006;2023-02-15T06:37:57;43.20;;;15.90;;
76818;SDS011;65772;51.096;17.006;2023-02-15T06:40:25;36.30;;;16.50;;
76818;SDS011;65772;51.096;17.006;2023-02-15T06:42:52;34.80;;;15.70;;
76818;SDS011;65772;51.096;17.006;2023-02-15T06:45:20;35.70;;;16.00;;
76818;SDS011;65772;51.096;17.006;2023-02-15T06:47:48;34.80;;;15.40;;
76818;SDS011;65772;51.096;17.006;2023-02-15T06:50:16;36.70;;;16.10;;
76818;SDS011;65772;51.096;17.006;2023-02-15T06:52:44;35.70;;;15.90;;
76818;SDS011;65772;51.096;17.006;2023-02-15T06:55:12;36.40;;;15.80;;
76818;SDS011;65772;51.096;17.006;2023-02-15T06:57:39;36.70;;;17.30;;
76818;SDS011;65772;51.096;17.006;2023-02-15T07:00:09;36.70;;;15.90;;
76818;SDS011;65772;51.096;17.006;2023-02-15T07:02:38;41.00;;;15.80;;
76818;SDS011;65772;51.096;17.006;2023-02-15T07:05:06;38.80;;;17.50;;
76818;SDS011;65772;51.096;17.006;2023-02-15T07:07:34;37.10;;;16.30;;
76818;SDS011;65772;51.096;17.006;2023-02-15T07:10:03;42.30;;;16.80;;
76818;SDS011;65772;51.096;17.006;2023-02-15T07:12:32;39.30;;;16.50;;
76818;SDS011;65772;51.096;17.006;2023-02-15T07:15:14;38.60;;;15.10;;
76818;SDS011;65772;51.096;17.006;2023-02-15T07:17:43;37.80;;;16.10;;
76818;SDS011;65772;51.096;17.006;2023-02-15T07:20:13;33.50;;;14.90;;
76818;SDS011;65772;51.096;17.006;2023-02-15T07:22:43;36.70;;;15.60;;
76818;SDS011;65772;51.096;17.006;2023-02-15T07:25:11;31.00;;;15.10;;
76818;SDS011;65772;51.096;17.006;2023-02-15T07:27:40;34.60;;;14.20;;
76818;SDS011;65772;51.096;17.006;2023-02-15T07:30:09;34.50;;;15.10;;
76818;SDS011;65772;51.096;17.006;2023-02-15T07:32:40;35.70;;;14.60;;
76818;SDS011;65772;51.096;17.006;2023-02-15T07:35:22;34.00;;;15.00;;
76818;SDS011;65772;51.096;17.006;2023-02-15T07:37:50;31.80;;;14.50;;
76818;SDS011;65772;51.096;17.006;2023-02-15T07:40:19;38.10;;;15.50;;
76818;SDS011;65772;51.096;17.006;2023-02-15T07:42:49;33.50;;;15.60;;
76818;SDS011;65772;51.096;17.006;2023-02-15T07:45:21;37.50;;;16.10;;
76818;SDS011;65772;51.096;17.006;2023-02-15T07:47:49;36.90;;;15.80;;
76818;SDS011;65772;51.096;17.006;2023-02-15T07:50:17;32.10;;;14.90;;
76818;SDS011;65772;51.096;17.006;2023-02-15T07:52:45;33.20;;;15.70;;
76818;SDS011;65772;51.096;17.006;2023-02-15T07:55:13;31.20;;;14.50;;
76818;SDS011;65772;51.096;17.006;2023-02-15T07:57:42;28.20;;;14.50;;
76818;SDS011;65772;51.096;17.006;2023-02-15T08:00:12;30.90;;;14.50;;
76818;SDS011;65772;51.096;17.006;2023-02-15T08:02:41;33.00;;;14.60;;
76818;SDS011;65772;51.096;17.006;2023-02-15T08:05:09;33.00;;;14.20;;
76818;SDS011;65772;51.096;17.006;2023-02-15T08:07:37;30.30;;;14.20;;
76818;SDS011;65772;51.096;17.006;2023-02-15T08:10:05;32.30;;;15.10;;
76818;SDS011;65772;51.096;17.006;2023-02-15T08:12:34;33.00;;;14.90;;
76818;SDS011;65772;51.096;17.006;2023-02-15T08:15:02;31.50;;;15.60;;
76818;SDS011;65772;51.096;17.006;2023-02-15T08:17:30;28.60;;;14.30;;
76818;SDS011;65772;51.096;17.006;2023-02-15T08:20:02;33.00;;;15.70;;
76818;SDS011;65772;51.096;17.006;2023-02-15T08:22:32;30.80;;;15.30;;
76818;SDS011;65772;51.096;17.006;2023-02-15T08:25:00;33.20;;;14.90;;
76818;SDS011;65772;51.096;17.006;2023-02-15T08:27:27;30.90;;;14.90;;
76818;SDS011;65772;51.096;17.006;2023-02-15T08:29:55;33.90;;;15.20;;
76818;SDS011;65772;51.096;17.006;2023-02-15T08:32:23;28.60;;;14.20;;
76818;SDS011;65772;51.096;17.006;2023-02-15T08:34:51;32.20;;;14.20;;
76818;SDS011;65772;51.096;17.006;2023-02-15T08:37:18;30.70;;;13.90;;
76818;SDS011;65772;51.096;17.006;2023-02-15T08:39:46;33.10;;;14.30;;
76818;SDS011;65772;51.096;17.006;2023-02-15T08:42:14;30.70;;;13.80;;
76818;SDS011;65772;51.096;17.006;2023-02-15T08:44:42;29.70;;;13.40;;
76818;SDS011;65772;51.096;17.006;2023-02-15T08:47:09;29.90;;;13.80;;
76818;SDS011;65772;51.096;17.006;2023-02-15T08:49:37;28.60;;;12.90;;
76818;SDS011;65772;51.096;17.006;2023-02-15T08:52:05;30.30;;;13.10;;
76818;SDS011;65772;51.096;17.006;2023-02-15T08:54:33;28.20;;;11.90;;
76818;SDS011;65772;51.096;17.006;2023-02-15T08:57:01;25.80;;;11.90;;
76818;SDS011;65772;51.096;17.006;2023-02-15T08:59:28;30.90;;;13.70;;
76818;SDS011;65772;51.096;17.006;2023-02-15T09:01:56;26.80;;;12.40;;
76818;SDS011;65772;51.096;17.006;2023-02-15T09:04:24;27.30;;;13.40;;
76818;SDS011;65772;51.096;17.006;2023-02-15T09:06:52;28.20;;;13.20;;
76818;SDS011;65772;51.096;17.006;2023-02-15T09:09:21;30.90;;;14.10;;
76818;SDS011;65772;51.096;17.006;2023-02-15T09:11:49;26.30;;;13.20;;
76818;SDS011;65772;51.096;17.006;2023-02-15T09:14:25;28.90;;;13.40;;
76818;SDS011;65772;51.096;17.006;2023-02-15T09:16:53;26.80;;;13.50;;
76818;SDS011;65772;51.096;17.006;2023-02-15T09:19:22;34.70;;;14.40;;
76818;SDS011;65772;51.096;17.006;2023-02-15T09:21:50;30.10;;;13.70;;
76818;SDS011;65772;51.096;17.006;2023-02-15T09:24:18;31.40;;;14.90;;
76818;SDS011;65772;51.096;17.006;2023-02-15T09:26:47;33.30;;;14.90;;
76818;SDS011;65772;51.096;17.006;2023-02-15T09:29:15;32.30;;;15.20;;
76818;SDS011;65772;51.096;17.006;2023-02-15T09:31:45;28.80;;;13.30;;
76818;SDS011;65772;51.096;17.006;2023-02-15T09:34:15;29.00;;;12.90;;
76818;SDS011;65772;51.096;17.006;2023-02-15T09:36:45;31.60;;;13.60;;
76818;SDS011;65772;51.096;17.006;2023-02-15T09:39:14;28.70;;;13.90;;
76818;SDS011;65772;51.096;17.006;2023-02-15T09:41:47;31.70;;;15.10;;
76818;SDS011;65772;51.096;17.006;2023-02-15T09:44:36;26.70;;;13.00;;
76818;SDS011;65772;51.096;17.006;2023-02-15T09:47:28;28.90;;;13.20;;
76818;SDS011;65772;51.096;17.006;2023-02-15T09:50:10;26.90;;;12.90;;
76818;SDS011;65772;51.096;17.006;2023-02-15T09:52:57;30.70;;;14.30;;
76818;SDS011;65772;51.096;17.006;2023-02-15T09:55:36;30.90;;;14.00;;
76818;SDS011;65772;51.096;17.006;2023-02-15T09:58:11;28.40;;;13.20;;
76818;SDS011;65772;51.096;17.006;2023-02-15T10:00:52;29.60;;;13.60;;
76818;SDS011;65772;51.096;17.006;2023-02-15T10:03:31;29.50;;;14.30;;
76818;SDS011;65772;51.096;17.006;2023-02-15T10:06:13;27.10;;;13.20;;
76818;SDS011;65772;51.096;17.006;2023-02-15T10:09:02;31.80;;;13.40;;
76818;SDS011;65772;51.096;17.006;2023-02-15T10:11:46;29.60;;;12.90;;
76818;SDS011;65772;51.096;17.006;2023-02-15T10:14:39;31.10;;;14.90;;
76818;SDS011;65772;51.096;17.006;2023-02-15T10:17:34;28.20;;;13.00;;
76818;SDS011;65772;51.096;17.006;2023-02-15T10:20:12;32.20;;;15.40;;
76818;SDS011;65772;51.096;17.006;2023-02-15T10:22:55;27.00;;;13.50;;
76818;SDS011;65772;51.096;17.006;2023-02-15T10:25:42;31.10;;;13.40;;
76818;SDS011;65772;51.096;17.006;2023-02-15T10:28:17;30.80;;;14.50;;
76818;SDS011;65772;51.096;17.006;2023-02-15T10:30:47;36.50;;;14.10;;
76818;SDS011;65772;51.096;17.006;2023-02-15T10:33:20;29.20;;;14.50;;
76818;SDS011;65772;51.096;17.006;2023-02-15T10:36:01;29.00;;;14.10;;
76818;SDS011;65772;51.096;17.006;2023-02-15T10:38:38;28.00;;;13.70;;
76818;SDS011;65772;51.096;17.006;2023-02-15T10:41:21;34.00;;;15.80;;
76818;SDS011;65772;51.096;17.006;2023-02-15T10:44:04;32.20;;;16.10;;
76818;SDS011;65772;51.096;17.006;2023-02-15T10:46:52;33.20;;;16.30;;
76818;SDS011;65772;51.096;17.006;2023-02-15T10:49:34;30.30;;;14.60;;
76818;SDS011;65772;51.096;17.006;2023-02-15T10:52:23;32.80;;;15.30;;
76818;SDS011;65772;51.096;17.006;2023-02-15T10:55:02;29.40;;;14.20;;
76818;SDS011;65772;51.096;17.006;2023-02-15T10:57:42;32.10;;;15.60;;
76818;SDS011;65772;51.096;17.006;2023-02-15T11:00:20;33.30;;;15.90;;
76818;SDS011;65772;51.096;17.006;2023-02-15T11:03:05;30.80;;;15.50;;
76818;SDS011;65772;51.096;17.006;2023-02-15T11:05:57;27.50;;;14.70;;
76818;SDS011;65772;51.096;17.006;2023-02-15T11:08:31;30.50;;;14.30;;
76818;SDS011;65772;51.096;17.006;2023-02-15T11:11:03;28.80;;;14.40;;
76818;SDS011;65772;51.096;17.006;2023-02-15T11:13:37;29.00;;;14.30;;
76818;SDS011;65772;51.096;17.006;2023-02-15T11:16:11;29.40;;;15.20;;
76818;SDS011;65772;51.096;17.006;2023-02-15T11:18:46;32.20;;;14.60;;
76818;SDS011;65772;51.096;17.006;2023-02-15T11:21:19;33.40;;;16.00;;
76818;SDS011;65772;51.096;17.006;2023-02-15T11:23:49;30.90;;;16.30;;
76818;SDS011;65772;51.096;17.006;2023-02-15T11:26:21;30.70;;;16.20;;
76818;SDS011;65772;51.096;17.006;2023-02-15T11:28:56;29.20;;;14.90;;
76818;SDS011;65772;51.096;17.006;2023-02-15T11:31:40;33.40;;;16.20;;
76818;SDS011;65772;51.096;17.006;2023-02-15T11:34:12;29.90;;;15.70;;
76818;SDS011;65772;51.096;17.006;2023-02-15T11:36:45;33.20;;;16.10;;
76818;SDS011;65772;51.096;17.006;2023-02-15T11:39:18;31.00;;;15.60;;
76818;SDS011;65772;51.096;17.006;2023-02-15T11:41:49;31.10;;;15.80;;
76818;SDS011;65772;51.096;17.006;2023-02-15T11:46:50;29.70;;;14.60;;
76818;SDS011;65772;51.096;17.006;2023-02-15T11:49:22;27.80;;;14.90;;
76818;SDS011;65772;51.096;17.006;2023-02-15T11:54:26;29.30;;;14.70;;
76818;SDS011;65772;51.096;17.006;2023-02-15T11:56:59;31.40;;;15.80;;
76818;SDS011;65772;51.096;17.006;2023-02-15T11:59:37;28.30;;;14.70;;
76818;SDS011;65772;51.096;17.006;2023-02-15T12:02:13;33.10;;;16.90;;
76818;SDS011;65772;51.096;17.006;2023-02-15T12:04:44;29.20;;;15.80;;
76818;SDS011;65772;51.096;17.006;2023-02-15T12:07:19;31.00;;;15.80;;
76818;SDS011;65772;51.096;17.006;2023-02-15T12:09:53;28.00;;;16.20;;
76818;SDS011;65772;51.096;17.006;2023-02-15T12:12:27;28.40;;;15.10;;
76818;SDS011;65772;51.096;17.006;2023-02-15T12:14:57;28.10;;;14.60;;
76818;SDS011;65772;51.096;17.006;2023-02-15T12:17:26;26.30;;;13.50;;
76818;SDS011;65772;51.096;17.006;2023-02-15T12:19:56;29.40;;;15.10;;
76818;SDS011;65772;51.096;17.006;2023-02-15T12:22:28;28.50;;;14.40;;
76818;SDS011;65772;51.096;17.006;2023-02-15T12:24:58;27.70;;;14.80;;
76818;SDS011;65772;51.096;17.006;2023-02-15T12:27:29;29.80;;;15.20;;
76818;SDS011;65772;51.096;17.006;2023-02-15T12:30:00;31.00;;;16.00;;
76818;SDS011;65772;51.096;17.006;2023-02-15T12:32:33;30.20;;;15.80;;
76818;SDS011;65772;51.096;17.006;2023-02-15T12:35:07;33.50;;;17.40;;
76818;SDS011;65772;51.096;17.006;2023-02-15T12:37:40;29.70;;;15.90;;
76818;SDS011;65772;51.096;17.006;2023-02-15T12:40:22;32.30;;;16.70;;
76818;SDS011;65772;51.096;17.006;2023-02-15T12:42:52;33.00;;;16.00;;
76818;SDS011;65772;51.096;17.006;2023-02-15T12:45:21;34.30;;;17.40;;
76818;SDS011;65772;51.096;17.006;2023-02-15T12:50:42;29.60;;;14.30;;
76818;SDS011;65772;51.096;17.006;2023-02-15T12:53:14;27.10;;;14.90;;
76818;SDS011;65772;51.096;17.006;2023-02-15T12:55:52;28.30;;;15.10;;
76818;SDS011;65772;51.096;17.006;2023-02-15T12:58:22;29.70;;;15.70;;
76818;SDS011;65772;51.096;17.006;2023-02-15T13:01:02;29.70;;;16.10;;
76818;SDS011;65772;51.096;17.006;2023-02-15T13:03:39;27.00;;;14.50;;
76818;SDS011;65772;51.096;17.006;2023-02-15T13:06:22;30.90;;;16.30;;
76818;SDS011;65772;51.096;17.006;2023-02-15T13:08:51;28.00;;;15.60;;
76818;SDS011;65772;51.096;17.006;2023-02-15T13:11:21;30.30;;;16.30;;
76818;SDS011;65772;51.096;17.006;2023-02-15T13:13:53;28.30;;;15.70;;
76818;SDS011;65772;51.096;17.006;2023-02-15T13:16:27;28.90;;;15.50;;
76818;SDS011;65772;51.096;17.006;2023-02-15T13:19:01;30.60;;;15.60;;
76818;SDS011;65772;51.096;17.006;2023-02-15T13:21:33;29.90;;;15.50;;
76818;SDS011;65772;51.096;17.006;2023-02-15T13:24:06;34.40;;;17.00;;
76818;SDS011;65772;51.096;17.006;2023-02-15T13:26:42;29.20;;;16.60;;
76818;SDS011;65772;51.096;17.006;2023-02-15T13:29:17;30.20;;;15.70;;
76818;SDS011;65772;51.096;17.006;2023-02-15T13:31:50;29.90;;;16.70;;
76818;SDS011;65772;51.096;17.006;2023-02-15T13:34:20;29.70;;;15.80;;
76818;SDS011;65772;51.096;17.006;2023-02-15T13:36:54;26.30;;;14.30;;
76818;SDS011;65772;51.096;17.006;2023-02-15T13:39:33;30.10;;;15.90;;
76818;SDS011;65772;51.096;17.006;2023-02-15T13:42:13;30.20;;;16.20;;
76818;SDS011;65772;51.096;17.006;2023-02-15T13:44:54;27.40;;;15.30;;
76818;SDS011;65772;51.096;17.006;2023-02-15T13:47:36;26.70;;;14.90;;
76818;SDS011;65772;51.096;17.006;2023-02-15T13:53:17;27.10;;;15.90;;
76818;SDS011;65772;51.096;17.006;2023-02-15T13:55:59;31.50;;;16.20;;
76818;SDS011;65772;51.096;17.006;2023-02-15T13:58:50;28.80;;;16.20;;
76818;SDS011;65772;51.096;17.006;2023-02-15T14:01:30;30.50;;;16.40;;
76818;SDS011;65772;51.096;17.006;2023-02-15T14:04:19;27.50;;;16.10;;
76818;SDS011;65772;51.096;17.006;2023-02-15T14:10:10;28.80;;;16.60;;
76818;SDS011;65772;51.096;17.006;2023-02-15T14:13:09;31.00;;;17.00;;
76818;SDS011;65772;51.096;17.006;2023-02-15T14:15:53;29.80;;;16.90;;
76818;SDS011;65772;51.096;17.006;2023-02-15T14:18:29;30.50;;;16.50;;
76818;SDS011;65772;51.096;17.006;2023-02-15T14:21:06;26.50;;;14.40;;
76818;SDS011;65772;51.096;17.006;2023-02-15T14:23:43;30.80;;;16.80;;
76818;SDS011;65772;51.096;17.006;2023-02-15T14:26:23;27.10;;;15.70;;
76818;SDS011;65772;51.096;17.006;2023-02-15T14:29:03;29.30;;;16.10;;
76818;SDS011;65772;51.096;17.006;2023-02-15T14:31:43;30.20;;;16.50;;
76818;SDS011;65772;51.096;17.006;2023-02-15T14:34:17;28.70;;;16.50;;
76818;SDS011;65772;51.096;17.006;2023-02-15T14:36:48;31.50;;;16.50;;
76818;SDS011;65772;51.096;17.006;2023-02-15T14:39:21;28.10;;;15.80;;
76818;SDS011;65772;51.096;17.006;2023-02-15T14:42:15;27.80;;;15.50;;
76818;SDS011;65772;51.096;17.006;2023-02-15T14:44:54;30.40;;;16.30;;
76818;SDS011;65772;51.096;17.006;2023-02-15T14:47:31;28.90;;;16.00;;
76818;SDS011;65772;51.096;17.006;2023-02-15T14:53:24;30.10;;;16.30;;
76818;SDS011;65772;51.096;17.006;2023-02-15T14:58:59;29.00;;;16.40;;
76818;SDS011;65772;51.096;17.006;2023-02-15T15:01:40;34.60;;;17.20;;
76818;SDS011;65772;51.096;17.006;2023-02-15T15:04:10;29.80;;;16.50;;
76818;SDS011;65772;51.096;17.006;2023-02-15T15:06:41;29.40;;;15.80;;
76818;SDS011;65772;51.096;17.006;2023-02-15T15:09:11;30.30;;;16.80;;
76818;SDS011;65772;51.096;17.006;2023-02-15T15:11:46;30.10;;;16.60;;
76818;SDS011;65772;51.096;17.006;2023-02-15T15:22:34;29.40;;;14.90;;
76818;SDS011;65772;51.096;17.006;2023-02-15T15:25:03;31.30;;;16.30;;
76818;SDS011;65772;51.096;17.006;2023-02-15T15:27:49;31.80;;;16.50;;
76818;SDS011;65772;51.096;17.006;2023-02-15T15:43:03;31.50;;;15.40;;